createdAt,value
2023-01-01T00:01:46.788Z,4.65
2023-01-01T00:04:15.475Z,3.00
2023-01-01T00:06:43.926Z,3.53
2023-01-01T00:09:29.361Z,4.75
2023-01-01T00:11:56.660Z,3.20
2023-01-01T00:14:23.999Z,4.47
2023-01-01T00:16:51.370Z,2.97
2023-01-01T00:19:18.768Z,4.50
2023-01-01T00:21:46.637Z,3.60
2023-01-01T00:24:13.496Z,3.35
2023-01-01T00:26:40.378Z,3.90
2023-01-01T00:29:07.232Z,3.55
2023-01-01T00:31:34.142Z,2.88
2023-01-01T00:34:01.072Z,3.40
2023-01-01T00:36:28.677Z,2.97
2023-01-01T00:38:55.797Z,3.38
2023-01-01T00:41:23.540Z,3.33
2023-01-01T00:43:50.783Z,4.18
2023-01-01T00:46:17.780Z,4.45
2023-01-01T00:48:45.095Z,3.63
2023-01-01T00:51:12.475Z,2.75
2023-01-01T00:53:39.742Z,2.78
2023-01-01T00:56:06.869Z,3.42
2023-01-01T00:58:34.149Z,3.28
2023-01-01T01:01:01.694Z,3.83
2023-01-01T01:03:29.138Z,4.20
2023-01-01T01:06:00.397Z,3.72
2023-01-01T01:08:31.099Z,3.10
2023-01-01T01:11:17.623Z,3.28
2023-01-01T01:13:46.499Z,3.28
2023-01-01T01:16:17.014Z,3.13
2023-01-01T01:18:45.554Z,3.50
2023-01-01T01:21:16.749Z,2.72
2023-01-01T01:23:44.350Z,3.08
2023-01-01T01:26:17.534Z,4.85
2023-01-01T01:28:49.293Z,3.63
2023-01-01T01:31:17.510Z,3.25
2023-01-01T01:33:45.731Z,3.60
2023-01-01T01:36:13.641Z,3.95
2023-01-01T01:38:40.707Z,3.13
2023-01-01T01:41:08.604Z,3.50
2023-01-01T01:43:35.828Z,3.97
2023-01-01T01:46:33.900Z,3.40
2023-01-01T01:49:17.566Z,3.35
2023-01-01T01:51:45.161Z,3.28
2023-01-01T01:54:16.590Z,3.17
2023-01-01T01:56:52.852Z,3.78
2023-01-01T01:59:22.661Z,3.92
2023-01-01T02:01:50.010Z,4.25
2023-01-01T02:04:17.651Z,3.75
2023-01-01T02:06:45.318Z,4.18
2023-01-01T02:09:13.207Z,4.35
2023-01-01T02:11:40.514Z,5.63
2023-01-01T02:14:07.514Z,4.78
2023-01-01T02:16:34.810Z,3.90
2023-01-01T02:19:20.048Z,4.20
2023-01-01T02:22:06.600Z,3.63
2023-01-01T02:25:10.609Z,3.75
2023-01-01T02:27:57.968Z,3.97
2023-01-01T02:30:25.077Z,3.92
2023-01-01T02:33:14.215Z,4.22
2023-01-01T02:36:03.322Z,4.03
2023-01-01T02:38:36.877Z,4.28
2023-01-01T02:41:26.477Z,4.50
2023-01-01T02:43:54.076Z,4.00
2023-01-01T02:48:51.936Z,3.33
2023-01-01T02:51:43.248Z,4.30
2023-01-01T02:54:19.222Z,4.05
2023-01-01T02:56:46.534Z,4.50
2023-01-01T02:59:34.923Z,4.35
2023-01-01T03:02:13.788Z,4.13
2023-01-01T03:04:55.930Z,4.30
2023-01-01T03:07:41.085Z,5.15
2023-01-01T03:10:34.725Z,4.55
2023-01-01T03:13:06.047Z,4.65
2023-01-01T03:16:06.811Z,5.05
2023-01-01T03:18:40.795Z,5.20
2023-01-01T03:23:44.497Z,4.85
2023-01-01T03:26:17.176Z,5.75
2023-01-01T03:28:53.753Z,4.43
2023-01-01T03:31:25.600Z,4.57
2023-01-01T03:34:07.245Z,5.10
2023-01-01T03:36:41.351Z,4.80
2023-01-01T03:39:23.115Z,5.38
2023-01-01T03:41:59.641Z,5.80
2023-01-01T03:44:35.362Z,5.07
2023-01-01T03:47:04.936Z,4.40
2023-01-01T03:49:32.933Z,5.32
2023-01-01T03:52:00.325Z,4.57
2023-01-01T03:54:59.425Z,4.82
2023-01-01T03:57:31.256Z,4.60
2023-01-01T04:00:17.122Z,4.47
2023-01-01T04:03:16.449Z,5.47
2023-01-01T04:05:44.056Z,4.90
2023-01-01T04:08:13.103Z,5.18
2023-01-01T04:10:43.758Z,5.07
2023-01-01T04:13:10.736Z,5.45
2023-01-01T04:15:37.699Z,4.85
2023-01-01T04:18:05.459Z,4.78
2023-01-01T04:20:32.470Z,4.38
2023-01-01T04:23:00.550Z,5.43
2023-01-01T04:25:28.681Z,5.18
2023-01-01T04:27:58.424Z,4.93
2023-01-01T04:30:26.852Z,5.40
2023-01-01T04:32:55.008Z,5.75
2023-01-01T04:35:22.299Z,4.45
2023-01-01T04:37:49.583Z,6.10
2023-01-01T04:40:16.938Z,5.03
2023-01-01T04:42:44.708Z,5.18
2023-01-01T04:45:15.143Z,4.50
2023-01-01T04:47:43.208Z,5.18
2023-01-01T04:50:10.534Z,5.32
2023-01-01T04:52:37.956Z,4.47
2023-01-01T04:55:05.535Z,5.55
2023-01-01T04:57:32.831Z,4.63
2023-01-01T05:00:00.114Z,5.25
2023-01-01T05:02:27.620Z,4.60
2023-01-01T05:04:55.022Z,5.93
2023-01-01T05:07:22.476Z,5.63
2023-01-01T05:09:49.770Z,6.78
2023-01-01T05:12:17.063Z,6.28
2023-01-01T05:14:44.371Z,5.60
2023-01-01T05:17:11.613Z,5.20
2023-01-01T05:19:39.065Z,6.03
2023-01-01T05:22:10.673Z,5.85
2023-01-01T05:24:38.476Z,5.43
2023-01-01T05:27:05.926Z,5.50
2023-01-01T05:29:33.190Z,7.28
2023-01-01T05:32:00.515Z,5.78
2023-01-01T05:36:56.081Z,6.13
2023-01-01T05:39:23.455Z,6.00
2023-01-01T05:41:51.908Z,5.20
2023-01-01T05:44:19.733Z,5.80
2023-01-01T05:46:47.103Z,6.00
2023-01-01T05:49:14.499Z,6.53
2023-01-01T05:56:35.245Z,6.45
2023-01-01T05:59:02.587Z,6.53
2023-01-01T06:01:32.719Z,5.65
2023-01-01T06:04:00.456Z,6.50
2023-01-01T06:06:31.259Z,5.75
2023-01-01T06:09:00.561Z,5.78
2023-01-01T06:11:28.117Z,5.82
2023-01-01T06:13:57.405Z,6.30
2023-01-01T06:16:25.129Z,6.95
2023-01-01T06:18:52.495Z,6.43
2023-01-01T06:21:25.340Z,6.15
2023-01-01T06:23:52.920Z,6.38
2023-01-01T06:26:22.740Z,6.53
2023-01-01T06:28:50.803Z,6.00
2023-01-01T06:31:21.182Z,4.80
2023-01-01T06:33:48.953Z,5.47
2023-01-01T06:36:17.617Z,5.70
2023-01-01T06:38:47.780Z,5.85
2023-01-01T06:41:17.292Z,6.05
2023-01-01T06:43:44.616Z,5.82
2023-01-01T06:46:20.711Z,5.40
2023-01-01T06:48:49.262Z,5.53
2023-01-01T06:51:28.586Z,4.53
2023-01-01T06:53:59.015Z,5.40
2023-01-01T06:56:26.606Z,5.60
2023-01-01T06:58:53.929Z,5.05
2023-01-01T07:01:23.587Z,5.50
2023-01-01T07:03:52.783Z,5.63
2023-01-01T07:06:20.244Z,4.95
2023-01-01T07:08:47.529Z,5.65
2023-01-01T07:11:14.788Z,4.68
2023-01-01T07:13:42.064Z,3.90
2023-01-01T07:16:13.220Z,4.18
2023-01-01T07:18:41.588Z,4.53
2023-01-01T07:21:30.808Z,4.00
2023-01-01T07:24:02.755Z,4.10
2023-01-01T07:26:31.007Z,4.47
2023-01-01T07:29:06.408Z,4.60
2023-01-01T07:31:39.231Z,4.57
2023-01-01T07:34:07.380Z,4.35
2023-01-01T07:36:34.899Z,4.22
2023-01-01T07:39:02.256Z,4.35
2023-01-01T07:41:29.666Z,3.75
2023-01-01T07:43:59.347Z,4.03
2023-01-01T07:46:27.259Z,4.30
2023-01-01T07:48:54.801Z,4.60
2023-01-01T07:51:22.401Z,3.83
2023-01-01T07:53:50.033Z,4.35
2023-01-01T07:56:17.509Z,4.70
2023-01-01T07:58:44.888Z,4.28
2023-01-01T08:01:13.072Z,4.50
2023-01-01T08:03:40.580Z,4.57
2023-01-01T08:06:12.537Z,3.67
2023-01-01T08:08:40.386Z,3.90
2023-01-01T08:11:07.863Z,4.28
2023-01-01T08:13:35.319Z,3.65
2023-01-01T08:16:02.739Z,3.55
2023-01-01T08:18:30.530Z,4.68
2023-01-01T08:20:57.890Z,4.57
2023-01-01T08:23:25.682Z,3.72
2023-01-01T08:25:53.282Z,4.70
2023-01-01T08:28:20.859Z,3.95
2023-01-01T08:30:48.643Z,3.80
2023-01-01T08:33:16.182Z,3.35
2023-01-01T08:35:46.638Z,4.22
2023-01-01T08:38:17.986Z,3.40
2023-01-01T08:40:45.543Z,3.13
2023-01-01T08:43:12.933Z,3.58
2023-01-01T08:45:40.246Z,3.40
2023-01-01T08:48:07.607Z,3.35
2023-01-01T08:50:34.952Z,3.80
2023-01-01T08:53:02.421Z,3.55
2023-01-01T08:55:29.946Z,2.72
2023-01-01T08:57:57.281Z,3.88
2023-01-01T09:00:24.855Z,3.65
2023-01-01T09:02:52.347Z,3.25
2023-01-01T09:05:19.777Z,2.95
2023-01-01T09:07:47.265Z,2.95
2023-01-01T09:10:14.695Z,3.33
2023-01-01T09:12:42.071Z,3.03
2023-01-01T09:15:16.138Z,2.92
2023-01-01T09:17:43.850Z,2.70
2023-01-01T09:20:11.360Z,2.85
2023-01-01T09:22:38.974Z,2.42
2023-01-01T09:25:07.082Z,3.20
2023-01-01T09:27:35.277Z,3.55
2023-01-01T09:30:02.654Z,2.25
2023-01-01T09:32:30.512Z,3.00
2023-01-01T09:34:57.908Z,2.97
2023-01-01T09:37:25.232Z,3.83
2023-01-01T09:39:52.969Z,3.25
2023-01-01T09:42:42.774Z,3.10
2023-01-01T09:45:23.424Z,2.63
2023-01-01T09:47:55.325Z,3.22
2023-01-01T09:50:25.783Z,2.78
2023-01-01T09:53:20.267Z,2.67
2023-01-01T09:56:06.765Z,2.60
2023-01-01T09:58:42.789Z,3.33
2023-01-01T10:01:49.380Z,2.70
2023-01-01T10:04:16.798Z,2.22
2023-01-01T10:06:51.731Z,2.65
2023-01-01T10:09:30.934Z,2.60
2023-01-01T10:12:12.954Z,2.80
2023-01-01T10:14:45.445Z,2.38
2023-01-01T10:17:21.042Z,2.88
2023-01-01T10:19:52.613Z,3.70
2023-01-01T10:22:31.976Z,2.70
2023-01-01T10:25:04.400Z,2.90
2023-01-01T10:27:36.712Z,2.05
2023-01-01T10:30:26.161Z,2.83
2023-01-01T10:32:55.123Z,2.93
2023-01-01T10:35:39.537Z,2.60
2023-01-01T10:38:07.094Z,2.33
2023-01-01T10:40:34.480Z,3.03
2023-01-01T10:43:03.946Z,2.58
2023-01-01T10:45:31.317Z,2.37
2023-01-01T10:48:19.652Z,2.42
2023-01-01T10:50:55.684Z,2.85
2023-01-01T10:53:40.683Z,2.83
2023-01-01T10:56:08.127Z,2.22
2023-01-01T10:58:42.583Z,2.53
2023-01-01T11:01:18.749Z,3.28
2023-01-01T11:03:56.624Z,2.40
2023-01-01T11:06:27.687Z,2.65
2023-01-01T11:08:57.695Z,2.95
2023-01-01T11:11:37.347Z,3.55
2023-01-01T11:14:06.338Z,3.22
2023-01-01T11:16:34.209Z,2.72
2023-01-01T11:19:06.061Z,2.70
2023-01-01T11:21:34.554Z,2.40
2023-01-01T11:24:18.063Z,2.78
2023-01-01T11:26:52.266Z,2.75
2023-01-01T11:29:28.342Z,2.75
2023-01-01T11:31:56.549Z,3.50
2023-01-01T11:34:36.427Z,2.95
2023-01-01T11:37:37.788Z,3.22
2023-01-01T11:40:07.252Z,2.80
2023-01-01T11:42:36.886Z,2.45
2023-01-01T11:45:19.845Z,2.67
2023-01-01T11:47:57.637Z,3.05
2023-01-01T11:50:35.992Z,3.10
2023-01-01T11:53:24.828Z,3.10
2023-01-01T11:56:08.620Z,2.50
2023-01-01T11:58:58.006Z,3.00
2023-01-01T12:01:59.379Z,2.38
2023-01-01T12:04:41.051Z,2.97
2023-01-01T12:07:13.234Z,3.05
2023-01-01T12:10:02.204Z,2.22
2023-01-01T12:12:29.600Z,2.50
2023-01-01T12:15:16.094Z,2.70
2023-01-01T12:17:45.420Z,2.85
2023-01-01T12:20:33.729Z,2.13
2023-01-01T12:23:01.193Z,2.78
2023-01-01T12:25:41.002Z,2.50
2023-01-01T12:28:28.003Z,2.85
2023-01-01T12:31:07.955Z,2.30
2023-01-01T12:33:35.271Z,2.40
2023-01-01T12:36:36.267Z,2.25
2023-01-01T12:39:43.961Z,2.70
2023-01-01T12:42:11.308Z,2.70
2023-01-01T12:44:38.603Z,2.25
2023-01-01T12:47:08.832Z,1.90
2023-01-01T12:50:04.716Z,1.90
2023-01-01T12:52:50.004Z,2.60
2023-01-01T12:55:55.563Z,2.58
2023-01-01T12:58:35.054Z,2.85
2023-01-01T13:01:11.819Z,2.57
2023-01-01T13:03:55.384Z,2.45
2023-01-01T13:06:50.498Z,2.20
2023-01-01T13:09:23.193Z,2.83
2023-01-01T13:11:55.201Z,2.50
2023-01-01T13:14:22.658Z,2.35
2023-01-01T13:16:57.712Z,2.45
2023-01-01T13:19:33.480Z,2.63
2023-01-01T13:22:29.425Z,2.17
2023-01-01T13:25:11.598Z,2.28
2023-01-01T13:27:57.955Z,2.75
2023-01-01T13:30:37.570Z,2.22
2023-01-01T13:33:35.163Z,2.03
2023-01-01T13:36:12.028Z,2.88
2023-01-01T13:38:58.528Z,2.35
2023-01-01T13:41:45.612Z,2.50
2023-01-01T13:44:22.066Z,2.60
2023-01-01T13:47:29.212Z,2.78
2023-01-01T13:50:10.377Z,2.47
2023-01-01T13:52:39.721Z,2.20
2023-01-01T13:55:24.103Z,2.20
2023-01-01T13:58:28.339Z,2.30
2023-01-01T14:01:13.364Z,2.10
2023-01-01T14:03:50.336Z,2.00
2023-01-01T14:06:37.172Z,2.10
2023-01-01T14:09:13.423Z,1.77
2023-01-01T14:11:40.862Z,2.35
2023-01-01T14:14:26.269Z,2.45
2023-01-01T14:16:58.661Z,2.13
2023-01-01T14:19:27.744Z,1.88
2023-01-01T14:21:55.572Z,2.65
2023-01-01T14:24:24.921Z,1.98
2023-01-01T14:26:52.379Z,1.95
2023-01-01T14:29:38.463Z,1.83
2023-01-01T14:32:21.517Z,2.08
2023-01-01T14:34:48.943Z,2.30
2023-01-01T14:37:23.715Z,2.30
2023-01-01T14:40:08.929Z,1.70
2023-01-01T14:42:37.485Z,2.03
2023-01-01T14:45:05.234Z,2.78
2023-01-01T14:47:36.300Z,1.70
2023-01-01T14:50:09.411Z,2.13
2023-01-01T14:52:36.862Z,2.85
2023-01-01T14:55:06.094Z,2.50
2023-01-01T14:57:35.617Z,2.42
2023-01-01T15:00:14.775Z,2.35
2023-01-01T15:02:42.249Z,1.95
2023-01-01T15:05:33.331Z,1.90
2023-01-01T15:08:04.719Z,1.88
2023-01-01T15:10:34.199Z,1.92
2023-01-01T15:13:01.628Z,2.23
2023-01-01T15:15:42.195Z,2.33
2023-01-01T15:18:35.714Z,2.20
2023-01-01T15:24:37.263Z,1.80
2023-01-01T15:27:06.764Z,2.63
2023-01-01T15:29:46.379Z,1.83
2023-01-01T15:32:16.984Z,2.60
2023-01-01T15:34:59.089Z,1.80
2023-01-01T15:37:53.120Z,2.20
2023-01-01T15:40:23.537Z,1.83
2023-01-01T15:42:57.082Z,2.20
2023-01-01T15:45:37.977Z,2.03
2023-01-01T15:48:21.869Z,2.20
2023-01-01T15:51:01.438Z,2.58
2023-01-01T15:54:07.290Z,1.98
2023-01-01T15:56:43.965Z,2.33
2023-01-01T15:59:35.081Z,2.00
2023-01-01T16:02:15.123Z,1.60
2023-01-01T16:04:47.303Z,1.77
2023-01-01T16:07:24.397Z,2.53
2023-01-01T16:09:58.066Z,2.55
2023-01-01T16:12:26.043Z,1.77
2023-01-01T16:14:56.042Z,2.00
2023-01-01T16:17:27.886Z,2.47
2023-01-01T16:20:09.210Z,2.97
2023-01-01T16:22:37.172Z,2.75
2023-01-01T16:25:17.147Z,2.47
2023-01-01T16:28:11.800Z,2.55
2023-01-01T16:30:47.006Z,2.53
2023-01-01T16:33:39.892Z,3.70
2023-01-01T16:36:07.390Z,3.65
2023-01-01T16:38:35.026Z,2.92
2023-01-01T16:41:02.424Z,2.30
2023-01-01T16:43:30.084Z,3.97
2023-01-01T16:45:57.448Z,2.58
2023-01-01T16:48:30.084Z,2.92
2023-01-01T16:50:57.657Z,3.50
2023-01-01T16:53:25.066Z,4.57
2023-01-01T16:55:52.868Z,3.17
2023-01-01T16:58:48.441Z,2.97
2023-01-01T17:01:10.803Z,4.32
2023-01-01T17:10:33.678Z,2.25
2023-01-01T17:13:27.633Z,2.55
2023-01-01T17:19:57.304Z,6.65
2023-01-01T17:23:00.159Z,4.95
2023-01-01T17:26:27.406Z,4.32
2023-01-01T17:29:04.157Z,5.65
2023-01-01T17:31:52.764Z,4.28
2023-01-01T17:35:05.568Z,5.10
2023-01-01T17:38:14.721Z,2.55
2023-01-01T17:41:00.520Z,6.95
2023-01-01T17:43:59.572Z,4.05
2023-01-01T17:47:43.042Z,2.58
2023-01-01T17:51:33.131Z,4.30
2023-01-01T17:54:19.469Z,2.53
2023-01-01T17:56:50.287Z,2.58
2023-01-01T17:59:18.422Z,2.72
2023-01-01T18:01:46.854Z,4.00
2023-01-01T18:04:14.903Z,3.70
2023-01-01T18:06:44.864Z,2.42
2023-01-01T18:09:14.662Z,3.45
2023-01-01T18:11:42.571Z,3.15
2023-01-01T18:14:10.916Z,2.47
2023-01-01T18:16:39.593Z,3.95
2023-01-01T18:19:07.065Z,3.38
2023-01-01T18:21:37.007Z,2.88
2023-01-01T18:24:29.074Z,2.92
2023-01-01T18:27:02.092Z,2.25
2023-01-01T18:29:28.930Z,2.97
2023-01-01T18:31:56.219Z,3.00
2023-01-01T18:34:23.507Z,2.50
2023-01-01T18:36:50.820Z,2.47
2023-01-01T18:39:21.237Z,2.67
2023-01-01T18:42:12.184Z,2.85
2023-01-01T18:44:39.487Z,3.17
2023-01-01T18:47:06.370Z,3.25
2023-01-01T18:49:35.451Z,2.47
2023-01-01T18:52:08.460Z,2.55
2023-01-01T18:54:35.988Z,2.45
2023-01-01T18:57:08.630Z,2.63
2023-01-01T18:59:37.463Z,2.60
2023-01-01T19:02:27.360Z,2.50
2023-01-01T19:05:17.818Z,2.90
2023-01-01T19:07:51.423Z,2.20
2023-01-01T19:10:18.749Z,2.60
2023-01-01T19:12:47.187Z,3.22
2023-01-01T19:15:19.621Z,2.83
2023-01-01T19:17:46.904Z,2.92
2023-01-01T19:20:19.866Z,3.33
2023-01-01T19:22:47.821Z,2.95
2023-01-01T19:25:37.526Z,2.45
2023-01-01T19:28:16.607Z,3.80
2023-01-01T19:30:47.328Z,2.88
2023-01-01T19:33:14.403Z,2.97
2023-01-01T19:35:41.544Z,2.38
2023-01-01T19:38:08.805Z,3.60
2023-01-01T19:40:36.099Z,3.63
2023-01-01T19:43:03.702Z,3.38
2023-01-01T19:45:31.718Z,4.18
2023-01-01T19:47:59.085Z,3.30
2023-01-01T19:50:26.082Z,3.45
2023-01-01T19:52:53.407Z,3.85
2023-01-01T19:55:20.847Z,3.83
2023-01-01T19:57:48.285Z,4.53
2023-01-01T20:00:15.479Z,3.95
2023-01-01T20:02:46.635Z,3.53
2023-01-01T20:05:15.304Z,2.92
2023-01-01T20:07:42.304Z,3.65
2023-01-01T20:10:09.603Z,3.08
2023-01-01T20:12:36.981Z,4.47
2023-01-01T20:15:04.510Z,3.58
2023-01-01T20:17:31.968Z,3.30
2023-01-01T20:19:59.227Z,3.22
2023-01-01T20:22:26.190Z,3.03
2023-01-01T20:24:53.543Z,3.50
2023-01-01T20:27:26.836Z,3.58
2023-01-01T20:29:57.042Z,2.85
2023-01-01T20:32:25.287Z,3.65
2023-01-01T20:34:53.217Z,3.38
2023-01-01T20:37:38.799Z,4.20
2023-01-01T20:40:08.095Z,3.55
2023-01-01T20:42:36.749Z,3.42
2023-01-01T20:45:08.099Z,4.10
2023-01-01T20:47:36.703Z,4.72
2023-01-01T20:50:03.705Z,3.70
2023-01-01T20:52:30.998Z,4.57
2023-01-01T20:54:58.240Z,5.50
2023-01-01T20:57:25.105Z,4.03
2023-01-01T20:59:52.371Z,4.22
2023-01-01T21:02:20.041Z,3.60
2023-01-01T21:04:47.568Z,4.10
2023-01-01T21:07:15.188Z,3.88
2023-01-01T21:09:42.649Z,3.25
2023-01-01T21:12:10.089Z,5.05
2023-01-01T21:14:37.422Z,3.60
2023-01-01T21:17:23.991Z,3.67
2023-01-01T21:19:54.911Z,3.30
2023-01-01T21:22:22.238Z,3.63
2023-01-01T21:24:54.092Z,3.83
2023-01-01T21:27:30.668Z,5.00
2023-01-01T21:29:58.521Z,3.90
2023-01-01T21:32:33.239Z,4.15
2023-01-01T21:35:00.623Z,4.20
2023-01-01T21:37:47.868Z,4.85
2023-01-01T21:40:29.553Z,3.85
2023-01-01T21:43:09.592Z,3.78
2023-01-01T21:45:42.847Z,3.15
2023-01-01T21:48:32.183Z,3.75
2023-01-01T21:50:59.602Z,3.60
2023-01-01T21:53:35.971Z,4.25
2023-01-01T21:56:16.325Z,4.32
2023-01-01T22:01:44.629Z,6.80
2023-01-01T22:04:11.753Z,9.32
2023-01-01T22:10:21.602Z,10.82
2023-01-01T22:12:49.013Z,9.38
2023-01-01T22:15:44.103Z,6.78
2023-01-01T22:18:26.185Z,4.78
2023-01-01T22:20:54.006Z,4.95
2023-01-01T22:23:38.243Z,7.35
2023-01-01T22:26:19.558Z,6.95
2023-01-01T22:28:49.214Z,5.00
2023-01-01T22:31:23.911Z,4.30
2023-01-01T22:33:53.167Z,3.75
2023-01-01T22:36:33.378Z,3.70
2023-01-01T22:39:12.391Z,3.75
2023-01-01T22:41:40.036Z,6.63
2023-01-01T22:44:07.554Z,7.22
2023-01-01T22:46:40.502Z,4.15
2023-01-01T22:49:17.339Z,3.67
2023-01-01T22:51:46.380Z,2.97
2023-01-01T22:54:13.373Z,3.53
2023-01-01T22:56:40.312Z,3.80
2023-01-01T22:59:07.262Z,4.25
2023-01-01T23:01:34.685Z,3.67
2023-01-01T23:04:01.624Z,3.78
2023-01-01T23:06:28.677Z,4.00
2023-01-01T23:08:56.540Z,3.72
2023-01-01T23:11:24.025Z,3.78
2023-01-01T23:14:10.369Z,3.70
2023-01-01T23:16:37.816Z,3.03
2023-01-01T23:19:05.447Z,3.60
2023-01-01T23:21:34.316Z,2.97
2023-01-01T23:24:04.720Z,3.25
2023-01-01T23:28:58.911Z,2.55
2023-01-01T23:31:27.973Z,3.83
2023-01-01T23:33:57.090Z,3.30
2023-01-01T23:36:26.596Z,3.08
2023-01-01T23:38:54.059Z,2.90
2023-01-01T23:41:22.431Z,3.08
2023-01-01T23:43:49.718Z,3.30
2023-01-01T23:46:17.986Z,3.25
2023-01-01T23:48:46.114Z,2.80
2023-01-01T23:51:13.546Z,3.25
2023-01-01T23:53:40.524Z,4.15
2023-01-01T23:56:07.661Z,3.63
2023-01-01T23:58:34.601Z,3.05
